Time;durP1;ratioP1;P1;durP2;ratioP2;P2;SDS_P1;SDS_P2;PMS_P1;PMS_P2;Temp;Humidity;BMP_temperature;BMP_pressure;BME280_temperature;BME280_humidity;BME280_pressure;Samples;Min_cycle;Max_cycle;Signal;HPM_P1;HPM_P2
2021/05/07 00:01:57;;;;;;;13.65;6.37;;;;;;;33.59;25.66;160019.75;1584093;89;21278;-88
2021/05/07 00:04:30;;;;;;;13.48;7.05;;;;;;;33.55;25.66;160007.73;1583359;90;21414;-87
2021/05/07 00:07:03;;;;;;;11.63;6.22;;;;;;;33.52;25.67;159999.72;1583375;90;21432;-88
2021/05/07 00:09:35;;;;;;;12.63;6.15;;;;;;;33.52;25.68;160001.02;1583593;90;21886;-88
2021/05/07 00:12:08;;;;;;;10.48;5.80;;;;;;;33.47;25.68;159987.69;1589610;89;21406;-88
2021/05/07 00:14:41;;;;;;;9.48;5.70;;;;;;;33.47;25.71;159986.33;1588604;89;21238;-88
2021/05/07 00:17:13;;;;;;;13.93;7.15;;;;;;;33.44;25.71;159978.36;1645323;86;21455;-87
2021/05/07 00:19:46;;;;;;;13.25;6.17;;;;;;;33.50;25.69;159994.36;1644078;87;21250;-87
2021/05/07 00:22:19;;;;;;;10.95;6.03;;;;;;;33.51;25.70;159998.34;1589036;89;21190;-87
2021/05/07 00:24:54;;;;;;;10.32;6.20;;;;;;;33.48;25.70;159990.38;1595144;89;21733;-87
2021/05/07 00:27:26;;;;;;;10.30;5.65;;;;;;;33.44;25.71;159978.36;1608762;89;21227;-87
2021/05/07 00:29:58;;;;;;;10.70;5.80;;;;;;;33.30;25.78;159942.27;1586892;89;21232;-85
2021/05/07 00:32:30;;;;;;;11.45;6.00;;;;;;;33.28;25.77;159936.92;1575842;89;21249;-88
2021/05/07 00:35:03;;;;;;;12.07;5.97;;;;;;;33.25;25.80;159928.94;1574151;89;22892;-88
2021/05/07 00:37:35;;;;;;;9.78;5.67;;;;;;;33.25;25.79;159928.94;1594511;90;21252;-88
2021/05/07 00:40:09;;;;;;;10.18;5.50;;;;;;;33.20;25.82;159914.25;1595939;88;21245;-87
2021/05/07 00:42:42;;;;;;;10.65;5.08;;;;;;;33.27;25.75;159932.94;1594413;90;21768;-88
2021/05/07 00:45:16;;;;;;;11.10;5.90;;;;;;;33.18;25.79;159908.91;1594539;88;21221;-88
2021/05/07 00:48:01;;;;;;;11.25;4.90;;;;;;;33.12;25.82;159892.86;1595127;88;21268;-89
2021/05/07 00:50:36;;;;;;;9.18;5.80;;;;;;;33.13;25.79;159894.22;1599670;88;21246;-87
2021/05/07 00:53:09;;;;;;;11.33;5.00;;;;;;;33.12;25.78;159891.55;1594068;88;21257;-88
2021/05/07 00:55:42;;;;;;;9.43;4.95;;;;;;;33.09;25.80;159883.47;1587888;90;21849;-88
2021/05/07 00:58:17;;;;;;;9.28;5.10;;;;;;;33.07;25.81;159878.12;1585648;89;21270;-89
2021/05/07 01:00:52;;;;;;;11.95;5.40;;;;;;;33.06;25.80;159875.45;1597280;90;21278;-87
2021/05/07 01:03:26;;;;;;;11.05;5.75;;;;;;;33.07;25.78;159878.12;1596917;90;21212;-86
2021/05/07 01:06:00;;;;;;;10.95;5.65;;;;;;;33.00;25.79;159860.77;1591862;88;21301;-86
2021/05/07 01:08:32;;;;;;;10.55;5.65;;;;;;;33.03;25.78;159868.78;1591177;89;21252;-87
2021/05/07 01:11:06;;;;;;;12.13;5.67;;;;;;;32.97;25.81;159852.80;1591539;89;21257;-87
2021/05/07 01:13:39;;;;;;;8.98;4.90;;;;;;;32.95;25.79;159847.44;1590580;89;21796;-88
2021/05/07 01:16:13;;;;;;;10.68;5.92;;;;;;;32.96;25.80;159850.13;1595976;89;21299;-88
2021/05/07 01:19:46;;;;;;;11.57;6.25;;;;;;;32.91;25.80;159836.75;1609941;89;21279;-88
2021/05/07 01:22:18;;;;;;;16.37;5.90;;;;;;;32.90;25.80;159832.75;1592738;90;21225;-88
2021/05/07 01:24:52;;;;;;;10.78;5.53;;;;;;;32.87;25.80;159826.05;1592565;89;21209;-89
2021/05/07 01:27:24;;;;;;;14.53;5.67;;;;;;;32.83;25.81;159814.03;1591707;89;21740;-88
2021/05/07 01:29:57;;;;;;;11.33;5.72;;;;;;;32.86;25.80;159823.42;1590402;90;21248;-88
2021/05/07 01:32:29;;;;;;;10.95;5.17;;;;;;;32.81;25.80;159810.05;1590874;90;22167;-88
2021/05/07 01:35:01;;;;;;;8.78;5.25;;;;;;;32.79;25.83;159804.70;1594610;89;21254;-88
2021/05/07 01:37:33;;;;;;;11.83;6.12;;;;;;;32.77;25.81;159799.36;1591658;90;21365;-88
2021/05/07 01:40:24;;;;;;;12.80;6.12;;;;;;;32.75;25.83;159794.06;1591474;90;21246;-88
2021/05/07 01:42:57;;;;;;;12.68;6.62;;;;;;;32.78;25.79;159800.72;1591763;89;21253;-88
2021/05/07 01:45:32;;;;;;;10.95;6.12;;;;;;;32.73;25.79;159787.34;1602872;89;21215;-87
2021/05/07 01:48:05;;;;;;;9.98;5.50;;;;;;;32.70;25.83;159780.69;1596868;88;21210;-88
2021/05/07 01:50:40;;;;;;;11.60;6.60;;;;;;;32.61;25.87;159755.31;1631259;86;21776;-88
2021/05/07 01:53:13;;;;;;;11.95;6.17;;;;;;;32.55;25.89;159739.27;1642382;87;21469;-88
2021/05/07 01:55:47;;;;;;;11.30;6.42;;;;;;;32.53;25.91;159735.23;1619695;87;21343;-88
2021/05/07 01:58:21;;;;;;;11.20;5.87;;;;;;;32.51;25.92;159728.58;1612020;89;21886;-88
2021/05/07 02:00:54;;;;;;;11.33;5.60;;;;;;;32.47;25.93;159719.25;1612503;88;21896;-88
2021/05/07 02:03:28;;;;;;;13.88;5.70;;;;;;;32.45;25.95;159713.89;1612358;87;21363;-89
2021/05/07 02:06:02;;;;;;;11.50;6.75;;;;;;;32.48;25.94;159721.91;1640251;86;21206;-89
2021/05/07 02:08:34;;;;;;;11.03;5.65;;;;;;;32.47;25.92;159719.25;1632295;86;21306;-89
2021/05/07 02:11:06;;;;;;;16.23;6.62;;;;;;;32.47;25.92;159719.25;1608332;88;21226;-89
2021/05/07 02:13:40;;;;;;;9.03;5.20;;;;;;;32.48;25.92;159720.55;1608441;88;21254;-89
2021/05/07 02:16:13;;;;;;;14.55;6.55;;;;;;;32.48;25.90;159721.91;1641833;86;21352;-89
2021/05/07 02:18:47;;;;;;;9.55;4.92;;;;;;;32.48;25.89;159721.91;1642504;86;21765;-88
2021/05/07 02:21:21;;;;;;;11.73;5.58;;;;;;;32.50;25.90;159727.25;1641418;87;21395;-88
2021/05/07 02:23:54;;;;;;;11.97;5.75;;;;;;;32.47;25.90;159717.88;1616566;87;21387;-89
2021/05/07 02:26:26;;;;;;;7.95;4.40;;;;;;;32.48;25.88;159721.91;1616969;87;21835;-88
2021/05/07 02:29:03;;;;;;;11.28;5.60;;;;;;;32.40;25.92;159700.58;1612440;89;21434;-89
2021/05/07 02:31:35;;;;;;;9.38;4.75;;;;;;;32.40;25.93;159700.58;1612319;87;21212;-89
2021/05/07 02:34:07;;;;;;;8.70;4.92;;;;;;;32.36;25.92;159689.87;1612265;88;21427;-89
2021/05/07 02:36:41;;;;;;;10.68;5.12;;;;;;;32.32;26.00;159677.88;1639553;87;21925;-89
2021/05/07 02:39:16;;;;;;;10.75;5.90;;;;;;;32.29;26.00;159669.86;1642551;86;21367;-89
2021/05/07 02:41:48;;;;;;;9.10;5.55;;;;;;;32.25;26.03;159660.53;1634399;87;21189;-88
2021/05/07 02:44:20;;;;;;;8.05;5.12;;;;;;;32.23;26.05;159653.88;1629281;87;21285;-89
2021/05/07 02:46:53;;;;;;;9.35;5.37;;;;;;;32.27;26.03;159664.52;1613572;88;21205;-89
2021/05/07 02:49:26;;;;;;;7.80;4.53;;;;;;;32.24;26.06;159656.50;1618390;86;21233;-88
2021/05/07 02:51:58;;;;;;;9.38;4.90;;;;;;;32.21;26.09;159647.16;1612817;88;21819;-88
2021/05/07 02:54:31;;;;;;;8.68;4.80;;;;;;;32.16;26.13;159635.16;1617223;87;21302;-90
2021/05/07 02:57:04;;;;;;;9.83;5.45;;;;;;;32.19;26.12;159641.81;1635980;87;21214;-88
2021/05/07 02:59:36;;;;;;;7.40;4.50;;;;;;;32.22;26.09;159651.20;1620897;87;21324;-88
2021/05/07 03:02:09;;;;;;;11.68;5.58;;;;;;;32.23;26.10;159653.88;1642697;87;21424;-87
2021/05/07 03:04:41;;;;;;;8.90;4.75;;;;;;;32.10;26.18;159619.17;1634046;87;21327;-88
2021/05/07 03:07:13;;;;;;;9.05;4.92;;;;;;;32.26;26.06;159663.20;1612422;89;21349;-88
2021/05/07 03:09:46;;;;;;;10.88;5.40;;;;;;;32.16;26.14;159633.84;1627829;88;21216;-88
2021/05/07 03:12:18;;;;;;;10.53;5.35;;;;;;;32.16;26.15;159633.84;1631826;86;21201;-89
2021/05/07 03:14:51;;;;;;;9.80;5.10;;;;;;;32.20;26.13;159644.48;1626493;87;21762;-89
2021/05/07 03:17:24;;;;;;;12.00;5.00;;;;;;;32.19;26.13;159643.19;1630475;87;21356;-89
2021/05/07 03:19:56;;;;;;;8.55;5.03;;;;;;;32.19;26.11;159641.81;1622735;87;21819;-88
2021/05/07 03:22:28;;;;;;;12.20;5.72;;;;;;;32.24;26.09;159657.86;1630068;86;21379;-88
2021/05/07 03:25:01;;;;;;;10.32;5.87;;;;;;;32.22;26.10;159649.84;1614236;87;21855;-88
2021/05/07 03:27:33;;;;;;;12.93;5.80;;;;;;;32.24;26.09;159656.50;1625392;87;21404;-88
2021/05/07 03:30:07;;;;;;;11.70;5.25;;;;;;;32.20;26.12;159645.84;1628890;86;21878;-88
2021/05/07 03:32:39;;;;;;;10.00;5.37;;;;;;;32.16;26.14;159635.16;1602037;87;21246;-89
2021/05/07 03:35:13;;;;;;;9.63;5.42;;;;;;;32.18;26.15;159639.14;1598146;87;21263;-89
2021/05/07 03:37:46;;;;;;;13.75;6.55;;;;;;;32.16;26.16;159633.84;1597892;87;21286;-89
2021/05/07 03:40:19;;;;;;;9.98;5.78;;;;;;;32.74;25.87;159790.02;1593665;87;21789;-87
2021/05/07 03:42:51;;;;;;;9.35;5.22;;;;;;;32.22;26.12;159651.20;1590636;87;21275;-86
2021/05/07 03:45:23;;;;;;;9.45;5.17;;;;;;;32.23;26.12;159653.88;1598987;87;21244;-88
2021/05/07 03:47:56;;;;;;;9.63;4.72;;;;;;;32.27;26.12;159664.52;1597124;88;21207;-85
2021/05/07 03:50:29;;;;;;;11.97;4.83;;;;;;;32.29;26.06;159671.17;1596868;87;21205;-86
2021/05/07 03:53:02;;;;;;;12.07;5.53;;;;;;;32.35;26.03;159687.20;1587124;87;21295;-87
2021/05/07 03:55:37;;;;;;;11.18;4.72;;;;;;;32.26;26.11;159663.20;1591335;87;21286;-88
2021/05/07 03:58:10;;;;;;;9.45;4.60;;;;;;;32.50;26.13;159725.91;1591453;87;21258;-87
2021/05/07 04:00:44;;;;;;;8.55;4.97;;;;;;;32.32;26.08;159679.19;1587537;88;21377;-88
2021/05/07 04:03:17;;;;;;;10.38;4.65;;;;;;;32.31;26.14;159675.20;1591666;87;21263;-87
2021/05/07 04:05:53;;;;;;;9.40;5.53;;;;;;;32.29;26.17;159671.17;1585166;88;21544;-87
2021/05/07 04:08:27;;;;;;;8.15;3.90;;;;;;;32.26;26.19;159661.84;1588606;89;21767;-89
2021/05/07 04:11:06;;;;;;;9.33;4.30;;;;;;;32.28;26.19;159668.55;1591159;87;21278;-88
2021/05/07 04:13:39;;;;;;;8.48;4.70;;;;;;;32.36;26.15;159689.87;1590766;87;21234;-88
2021/05/07 04:16:09;;;;;;;11.70;4.40;;;;;;;32.35;26.16;159685.84;1594375;87;21288;-90
2021/05/07 04:18:43;;;;;;;8.50;3.85;;;;;;;32.37;26.17;159691.19;1592394;87;21263;-89
2021/05/07 04:21:15;;;;;;;9.50;4.62;;;;;;;32.39;26.20;159697.91;1585169;87;21268;-89
2021/05/07 04:23:48;;;;;;;7.42;3.87;;;;;;;32.40;26.20;159700.58;1590709;87;21272;-88
2021/05/07 04:26:21;;;;;;;7.90;3.83;;;;;;;32.49;26.17;159724.59;1589720;87;21295;-86
2021/05/07 04:28:53;;;;;;;8.08;4.15;;;;;;;32.51;26.16;159728.58;1587903;87;21769;-88
2021/05/07 04:31:26;;;;;;;9.83;4.55;;;;;;;32.58;26.13;159747.28;1584971;88;21230;-89
2021/05/07 04:33:59;;;;;;;8.43;3.70;;;;;;;32.58;26.15;159747.28;1589472;87;21267;-87
2021/05/07 04:36:32;;;;;;;7.75;4.35;;;;;;;32.61;26.13;159756.67;1593573;87;21262;-89
2021/05/07 04:39:05;;;;;;;6.87;3.98;;;;;;;33.15;25.83;159900.88;1587443;87;21275;-87
2021/05/07 04:41:39;;;;;;;7.25;3.33;;;;;;;32.70;26.10;159779.31;1591408;87;21318;-87
2021/05/07 04:44:12;;;;;;;9.28;3.45;;;;;;;32.70;26.14;159779.31;1586016;88;21346;-87
2021/05/07 04:46:45;;;;;;;7.15;3.65;;;;;;;32.71;26.11;159783.36;1588351;87;21801;-88
2021/05/07 04:49:18;;;;;;;5.92;3.70;;;;;;;32.68;26.16;159775.34;1591118;87;21695;-88
2021/05/07 04:51:51;;;;;;;8.73;4.28;;;;;;;32.80;26.11;159807.38;1596634;87;21793;-86
2021/05/07 04:54:25;;;;;;;9.75;3.58;;;;;;;32.84;26.10;159818.06;1570547;88;21373;-88
2021/05/07 04:56:58;;;;;;;8.08;4.03;;;;;;;32.78;26.17;159802.03;1614829;86;21217;-88
2021/05/07 04:59:30;;;;;;;8.30;3.72;;;;;;;32.81;26.17;159810.05;1623791;87;21281;-83
2021/05/07 05:02:03;;;;;;;6.67;3.85;;;;;;;32.81;26.17;159810.05;1610635;87;21308;-84
2021/05/07 05:04:35;;;;;;;6.70;3.58;;;;;;;32.85;26.20;159820.75;1632062;86;21423;-85
2021/05/07 05:07:08;;;;;;;7.75;3.50;;;;;;;32.90;26.18;159832.75;1617261;87;21330;-85
2021/05/07 05:09:40;;;;;;;6.75;3.30;;;;;;;32.93;26.16;159840.78;1607576;88;21268;-85
2021/05/07 05:12:13;;;;;;;6.83;3.33;;;;;;;32.99;26.16;159856.78;1607617;89;21816;-85
2021/05/07 05:14:45;;;;;;;6.58;3.40;;;;;;;32.95;26.19;159847.44;1607418;89;21252;-86
2021/05/07 05:17:17;;;;;;;7.03;3.37;;;;;;;32.95;26.21;159846.08;1615750;87;21191;-85
2021/05/07 05:19:50;;;;;;;4.22;2.90;;;;;;;32.94;26.22;159844.77;1639447;87;21244;-86
2021/05/07 05:22:22;;;;;;;6.45;2.98;;;;;;;32.97;26.21;159852.80;1583859;89;21258;-85
2021/05/07 05:24:57;;;;;;;7.37;3.25;;;;;;;33.04;26.20;159870.16;1625480;87;21355;-85
2021/05/07 05:27:29;;;;;;;5.95;2.98;;;;;;;33.04;26.20;159870.16;1639544;86;22068;-85
2021/05/07 05:30:03;;;;;;;5.87;3.52;;;;;;;33.07;26.20;159879.48;1639434;87;21387;-85
2021/05/07 05:32:36;;;;;;;8.00;3.12;;;;;;;33.08;26.20;159882.16;1639663;87;21221;-86
2021/05/07 05:35:10;;;;;;;5.70;3.30;;;;;;;33.15;26.19;159900.88;1608177;87;21346;-85
2021/05/07 05:37:42;;;;;;;5.55;3.08;;;;;;;33.17;26.21;159906.23;1637454;87;21821;-85
2021/05/07 05:40:15;;;;;;;5.80;3.15;;;;;;;33.27;26.15;159934.25;1613202;87;21247;-85
2021/05/07 05:42:47;;;;;;;5.42;2.70;;;;;;;33.33;26.19;159948.98;1607550;89;21228;-85
2021/05/07 05:45:22;;;;;;;4.35;3.12;;;;;;;33.46;26.14;159983.66;1607816;87;21199;-85
2021/05/07 05:48:14;;;;;;;5.53;3.00;;;;;;;33.50;26.14;159995.72;1607701;87;21200;-85
2021/05/07 05:50:52;;;;;;;5.83;3.02;;;;;;;33.64;26.07;160031.81;1609764;87;21405;-85
2021/05/07 05:53:24;;;;;;;4.85;2.55;;;;;;;33.69;26.09;160046.52;1608963;87;21220;-84
2021/05/07 05:55:57;;;;;;;5.03;3.17;;;;;;;33.72;26.13;160053.17;1642463;87;21183;-85
2021/05/07 05:58:35;;;;;;;5.75;2.30;;;;;;;33.76;26.08;160063.88;1633857;86;21206;-85
2021/05/07 06:01:03;;;;;;;7.03;3.10;;;;;;;33.80;26.03;160075.91;1634129;87;21206;-85
2021/05/07 06:03:35;;;;;;;4.65;2.75;;;;;;;33.87;25.99;160093.27;1636120;86;21194;-85
2021/05/07 06:06:07;;;;;;;7.15;3.10;;;;;;;33.94;25.96;160111.94;1636294;88;21258;-85
2021/05/07 06:08:40;;;;;;;5.10;2.80;;;;;;;34.00;25.88;160129.31;1635924;86;21246;-85
2021/05/07 06:11:14;;;;;;;4.42;2.40;;;;;;;34.05;25.81;160141.34;1633845;88;21238;-84
2021/05/07 06:13:47;;;;;;;5.87;1.90;;;;;;;34.16;25.67;160172.14;1620306;87;21412;-85
2021/05/07 06:16:20;;;;;;;7.22;2.22;;;;;;;34.15;25.60;160170.78;1619307;88;21221;-85
2021/05/07 06:18:52;;;;;;;4.78;2.05;;;;;;;34.22;25.53;160188.16;1627735;87;21206;-85
2021/05/07 06:21:27;;;;;;;3.50;2.05;;;;;;;34.30;25.41;160209.56;1595482;88;21186;-85
2021/05/07 06:23:59;;;;;;;3.80;1.92;;;;;;;34.25;25.35;160196.19;1595460;89;21278;-85
2021/05/07 06:26:31;;;;;;;4.12;1.90;;;;;;;34.34;25.20;160221.59;1595637;90;21189;-85
2021/05/07 06:29:03;;;;;;;4.45;1.70;;;;;;;34.41;25.05;160240.28;1580112;88;21784;-85
2021/05/07 06:31:37;;;;;;;4.55;2.12;;;;;;;34.39;25.05;160233.61;1573280;88;21270;-85
2021/05/07 06:34:09;;;;;;;3.60;1.80;;;;;;;34.48;24.98;160259.02;1573605;89;21233;-85
2021/05/07 06:36:43;;;;;;;4.87;1.52;;;;;;;34.53;24.93;160271.05;1594372;88;21245;-85
2021/05/07 06:39:15;;;;;;;4.17;2.05;;;;;;;34.58;24.82;160284.44;1615505;87;21291;-85
2021/05/07 06:41:47;;;;;;;2.55;1.62;;;;;;;34.66;24.71;160307.16;1619638;86;21357;-85
2021/05/07 06:44:19;;;;;;;4.37;1.70;;;;;;;34.67;24.67;160309.84;1586882;88;21241;-85
2021/05/07 06:46:52;;;;;;;3.12;1.52;;;;;;;34.73;24.62;160325.86;1632587;88;21206;-86
2021/05/07 06:49:24;;;;;;;4.80;1.57;;;;;;;34.76;24.56;160332.58;1635898;88;21301;-85
2021/05/07 06:51:57;;;;;;;3.83;1.37;;;;;;;34.74;24.59;160328.53;1636095;86;21376;-85
2021/05/07 06:54:29;;;;;;;4.80;1.70;;;;;;;34.89;24.48;160368.66;1635319;86;21226;-84
2021/05/07 06:57:01;;;;;;;3.00;1.42;;;;;;;35.01;24.41;160399.42;1637615;87;21711;-85
2021/05/07 06:59:34;;;;;;;2.42;1.35;;;;;;;35.00;24.38;160396.75;1619614;87;21352;-85
2021/05/07 07:02:06;;;;;;;3.30;1.37;;;;;;;35.02;24.36;160402.06;1643187;87;21196;-85
2021/05/07 07:04:38;;;;;;;4.37;1.45;;;;;;;35.09;24.30;160420.86;1637279;86;21278;-85
2021/05/07 07:07:11;;;;;;;2.22;1.37;;;;;;;35.13;24.19;160432.88;1637463;86;21208;-85
2021/05/07 07:09:44;;;;;;;2.35;1.40;;;;;;;35.14;24.19;160435.56;1637525;86;21730;-85
2021/05/07 07:12:16;;;;;;;2.30;1.12;;;;;;;35.09;24.23;160420.86;1614277;87;21228;-85
2021/05/07 07:14:50;;;;;;;2.85;1.45;;;;;;;35.13;24.22;160431.56;1616264;87;21251;-85
2021/05/07 07:17:23;;;;;;;3.17;1.30;;;;;;;35.19;24.18;160448.91;1618370;87;21445;-85
2021/05/07 07:19:55;;;;;;;5.22;1.50;;;;;;;35.23;24.10;160459.63;1634393;86;21275;-86
2021/05/07 07:22:29;;;;;;;1.35;0.95;;;;;;;35.75;23.72;160598.78;1646009;86;21235;-85
2021/05/07 07:25:01;;;;;;;1.67;1.20;;;;;;;35.36;23.92;160495.70;1646281;86;21192;-86
2021/05/07 07:27:34;;;;;;;7.37;1.72;;;;;;;35.34;23.89;160489.03;1630831;87;21781;-85
2021/05/07 07:30:07;;;;;;;3.65;1.10;;;;;;;35.30;23.89;160478.38;1616517;87;21884;-85
2021/05/07 07:32:39;;;;;;;1.25;0.95;;;;;;;35.34;23.85;160490.41;1616731;87;21393;-85
2021/05/07 07:35:13;;;;;;;3.30;1.15;;;;;;;35.38;23.80;160499.75;1640607;86;21236;-86
2021/05/07 07:37:45;;;;;;;1.25;1.00;;;;;;;35.38;23.77;160499.75;1638557;86;21259;-85
2021/05/07 07:40:18;;;;;;;2.60;0.95;;;;;;;35.40;23.74;160505.11;1624433;87;21799;-86
2021/05/07 07:42:50;;;;;;;0.72;0.70;;;;;;;35.38;23.62;160501.06;1646130;85;21377;-86
2021/05/07 07:45:22;;;;;;;2.65;1.00;;;;;;;35.40;23.52;160506.42;1655781;85;21234;-86
2021/05/07 07:47:54;;;;;;;1.37;1.10;;;;;;;35.43;23.48;160513.09;1648282;85;21330;-85
2021/05/07 07:50:27;;;;;;;1.07;0.80;;;;;;;35.41;23.49;160509.09;1637386;87;21285;-86
2021/05/07 07:52:59;;;;;;;7.15;1.22;;;;;;;35.48;23.42;160527.81;1632575;87;21193;-86
2021/05/07 07:55:32;;;;;;;3.58;0.88;;;;;;;35.53;23.34;160541.25;1637194;87;21263;-86
2021/05/07 07:58:04;;;;;;;3.02;1.10;;;;;;;35.53;23.33;160541.25;1621319;87;21740;-86
2021/05/07 08:00:55;;;;;;;1.77;1.10;;;;;;;35.55;23.30;160545.25;1577882;88;21197;-86
2021/05/07 08:03:27;;;;;;;1.02;0.82;;;;;;;35.58;23.29;160554.64;1630025;88;21836;-86
2021/05/07 08:06:00;;;;;;;4.75;1.62;;;;;;;35.55;23.25;160545.25;1629973;87;21756;-85
2021/05/07 08:08:32;;;;;;;1.40;0.80;;;;;;;35.51;23.29;160534.53;1630093;87;21293;-86
2021/05/07 08:11:04;;;;;;;1.60;0.98;;;;;;;35.51;23.32;160535.84;1600951;88;21228;-86
2021/05/07 08:13:37;;;;;;;1.70;0.90;;;;;;;35.55;23.31;160546.61;1624563;87;21217;-86
2021/05/07 08:16:09;;;;;;;3.33;1.27;;;;;;;35.56;23.29;160547.92;1621280;88;21391;-86
2021/05/07 08:18:41;;;;;;;2.12;0.90;;;;;;;35.59;23.27;160557.28;1619415;88;21404;-86
2021/05/07 08:21:14;;;;;;;2.45;1.52;;;;;;;35.62;23.26;160564.00;1602739;88;21853;-86
2021/05/07 08:23:47;;;;;;;3.42;0.93;;;;;;;35.61;23.30;160561.31;1611589;89;21654;-86
2021/05/07 08:26:19;;;;;;;2.40;1.02;;;;;;;35.64;23.29;160570.67;1589039;89;21265;-86
2021/05/07 08:28:52;;;;;;;0.95;0.65;;;;;;;35.68;23.28;160581.39;1605238;88;21418;-86
2021/05/07 08:31:24;;;;;;;3.95;1.10;;;;;;;35.70;23.28;160585.39;1605160;88;21248;-86
2021/05/07 08:33:56;;;;;;;1.98;0.90;;;;;;;35.68;23.28;160581.39;1630924;88;21201;-86
2021/05/07 08:36:29;;;;;;;1.80;0.90;;;;;;;35.73;23.23;160594.73;1602945;88;21224;-86
2021/05/07 08:39:01;;;;;;;3.83;0.90;;;;;;;35.73;23.23;160593.42;1630725;88;21228;-86
2021/05/07 08:41:33;;;;;;;3.47;1.30;;;;;;;35.75;23.22;160600.09;1603313;88;21837;-86
2021/05/07 08:44:06;;;;;;;2.45;1.35;;;;;;;35.78;23.20;160606.77;1630980;86;21238;-86
2021/05/07 08:46:41;;;;;;;1.75;0.90;;;;;;;35.80;23.21;160612.13;1591993;90;21374;-86
2021/05/07 08:49:17;;;;;;;1.65;0.90;;;;;;;35.81;23.17;160614.81;1624626;87;21728;-86
2021/05/07 08:51:49;;;;;;;1.70;1.00;;;;;;;35.80;23.14;160613.50;1622961;88;21210;-85
2021/05/07 08:54:21;;;;;;;1.55;1.00;;;;;;;35.79;23.14;160609.45;1621237;88;21241;-85
2021/05/07 08:56:54;;;;;;;2.25;1.77;;;;;;;35.79;23.01;160609.45;1621414;88;21300;-85
2021/05/07 08:59:26;;;;;;;0.88;0.88;;;;;;;35.81;22.93;160616.17;1632068;88;21207;-86
2021/05/07 09:01:59;;;;;;;1.07;0.80;;;;;;;35.77;22.97;160605.45;1591257;89;21811;-86
2021/05/07 09:04:31;;;;;;;3.45;1.10;;;;;;;35.76;23.01;160601.47;1597961;88;21390;-85
2021/05/07 09:07:11;;;;;;;2.75;0.95;;;;;;;35.81;22.97;160614.81;1590253;89;21217;-86
2021/05/07 09:09:50;;;;;;;1.62;0.80;;;;;;;35.86;22.97;160628.20;1625402;86;21232;-85
2021/05/07 09:12:38;;;;;;;1.27;0.62;;;;;;;35.87;22.97;160632.20;1647093;87;21305;-85
2021/05/07 09:15:12;;;;;;;1.47;0.80;;;;;;;35.82;22.99;160618.80;1621671;87;21205;-85
2021/05/07 09:17:44;;;;;;;1.27;0.78;;;;;;;35.85;22.99;160626.84;1636357;86;21215;-85
2021/05/07 09:20:17;;;;;;;1.87;0.65;;;;;;;35.85;22.98;160625.53;1591574;90;21752;-85
2021/05/07 09:22:49;;;;;;;0.57;0.50;;;;;;;35.86;23.02;160629.53;1593114;89;21245;-85
2021/05/07 09:25:21;;;;;;;3.83;0.90;;;;;;;35.94;23.00;160650.91;1604430;88;21225;-85
2021/05/07 09:27:54;;;;;;;0.98;0.70;;;;;;;36.00;23.02;160665.67;1580027;89;21912;-85
2021/05/07 09:30:29;;;;;;;2.98;0.80;;;;;;;36.01;23.04;160668.36;1594505;88;21216;-86
2021/05/07 09:33:05;;;;;;;0.85;0.72;;;;;;;36.09;23.02;160691.11;1594768;88;21271;-86
2021/05/07 09:35:37;;;;;;;3.58;1.67;;;;;;;36.09;23.06;160691.11;1607984;87;21253;-85
2021/05/07 09:38:21;;;;;;;0.85;0.62;;;;;;;36.12;23.09;160700.47;1606009;88;21377;-84
2021/05/07 09:40:49;;;;;;;2.70;0.88;;;;;;;36.16;23.14;160709.87;1623673;87;21179;-85
2021/05/07 09:43:24;;;;;;;3.10;0.88;;;;;;;36.16;23.14;160709.87;1611615;88;21329;-86
2021/05/07 09:45:56;;;;;;;2.22;0.80;;;;;;;36.26;23.14;160737.94;1601399;88;21789;-85
2021/05/07 09:48:29;;;;;;;1.60;1.07;;;;;;;36.31;23.10;160751.34;1635900;86;21284;-85
2021/05/07 09:51:05;;;;;;;0.75;0.60;;;;;;;36.42;23.07;160780.78;1636033;88;21195;-86
2021/05/07 09:53:39;;;;;;;1.17;1.07;;;;;;;36.51;23.04;160803.59;1635964;86;21746;-85
2021/05/07 09:56:17;;;;;;;1.22;0.93;;;;;;;36.47;23.11;160794.19;1634465;87;21195;-85
2021/05/07 09:58:50;;;;;;;2.37;0.85;;;;;;;36.57;23.10;160819.63;1604034;89;21260;-85
2021/05/07 10:01:23;;;;;;;1.00;0.80;;;;;;;36.62;23.10;160834.34;1607311;88;21418;-85
2021/05/07 10:04:03;;;;;;;0.93;0.65;;;;;;;36.59;23.16;160826.31;1631298;86;21202;-85
2021/05/07 10:06:33;;;;;;;1.72;0.80;;;;;;;36.65;23.19;160841.03;1605511;88;21251;-85
2021/05/07 10:09:06;;;;;;;1.90;1.20;;;;;;;36.69;23.23;160853.08;1604188;88;21258;-85
2021/05/07 10:11:44;;;;;;;2.15;1.07;;;;;;;36.72;23.27;160859.80;1605875;88;21262;-85
2021/05/07 10:14:17;;;;;;;2.22;0.90;;;;;;;36.81;23.28;160883.89;1604153;88;21329;-85
2021/05/07 10:16:50;;;;;;;2.22;0.88;;;;;;;36.89;23.31;160906.66;1603991;88;21455;-86
2021/05/07 10:19:22;;;;;;;1.87;0.90;;;;;;;37.04;23.29;160946.83;1605791;88;21257;-85
2021/05/07 10:22:01;;;;;;;1.72;0.70;;;;;;;37.11;23.25;160965.59;1627692;88;21194;-86
2021/05/07 10:24:38;;;;;;;1.65;0.80;;;;;;;37.09;23.25;160961.56;1624858;86;21241;-85
2021/05/07 10:27:22;;;;;;;1.52;0.62;;;;;;;37.12;23.20;160969.59;1622510;87;21191;-86
2021/05/07 10:30:00;;;;;;;1.25;0.90;;;;;;;37.13;23.19;160970.97;1622658;87;21385;-85
2021/05/07 10:32:37;;;;;;;2.90;1.00;;;;;;;37.10;23.22;160962.92;1597479;88;21290;-86
2021/05/07 10:35:10;;;;;;;1.30;0.80;;;;;;;37.11;23.22;160965.59;1596147;88;21350;-85
2021/05/07 10:37:45;;;;;;;2.33;0.82;;;;;;;37.10;23.20;160962.92;1597811;88;21226;-84
2021/05/07 10:40:24;;;;;;;1.15;0.70;;;;;;;37.19;23.13;160987.00;1605425;88;21253;-84
2021/05/07 10:42:58;;;;;;;2.17;0.80;;;;;;;37.19;23.12;160988.37;1603940;88;21238;-85
2021/05/07 10:45:42;;;;;;;1.30;0.68;;;;;;;37.06;23.19;160952.19;1609897;88;21185;-85
2021/05/07 10:48:26;;;;;;;1.02;0.90;;;;;;;37.04;23.20;160948.19;1631293;86;21249;-86
2021/05/07 10:51:01;;;;;;;2.05;0.80;;;;;;;37.07;23.17;160954.87;1630948;88;21377;-86
2021/05/07 10:53:36;;;;;;;1.98;1.00;;;;;;;37.05;23.16;160949.50;1631241;88;21407;-85
2021/05/07 10:56:23;;;;;;;3.30;1.30;;;;;;;37.06;23.19;160953.56;1617152;88;21453;-86
2021/05/07 10:58:56;;;;;;;4.97;1.20;;;;;;;37.05;23.15;160950.87;1580449;89;21222;-85
2021/05/07 11:01:31;;;;;;;2.75;0.90;;;;;;;37.15;23.06;160977.64;1587329;89;21894;-86
2021/05/07 11:04:11;;;;;;;2.50;1.20;;;;;;;37.20;23.01;160989.69;1585863;89;21862;-86
2021/05/07 11:06:47;;;;;;;2.73;1.30;;;;;;;37.20;23.02;160991.06;1604467;88;21721;-85
2021/05/07 11:09:22;;;;;;;1.75;0.90;;;;;;;37.28;22.96;161011.09;1618895;87;21223;-85
2021/05/07 11:12:02;;;;;;;3.37;1.12;;;;;;;37.33;22.94;161024.50;1615283;88;21257;-85
2021/05/07 11:14:43;;;;;;;3.42;1.07;;;;;;;37.35;22.90;161031.25;1592121;90;21233;-85
2021/05/07 11:17:18;;;;;;;1.37;0.90;;;;;;;37.39;22.90;161040.59;1612524;88;21196;-85
2021/05/07 11:19:51;;;;;;;2.77;1.02;;;;;;;37.43;22.92;161051.34;1639899;86;21399;-86
2021/05/07 11:22:27;;;;;;;2.55;0.98;;;;;;;37.42;22.92;161048.66;1626621;86;21224;-85
2021/05/07 11:25:00;;;;;;;4.92;0.88;;;;;;;37.46;22.93;161060.70;1619462;88;21746;-86
2021/05/07 11:27:32;;;;;;;1.65;0.90;;;;;;;37.50;22.87;161070.13;1607527;88;21255;-85
2021/05/07 11:30:13;;;;;;;3.77;0.98;;;;;;;37.58;22.82;161092.84;1611141;87;21243;-85
2021/05/07 11:32:41;;;;;;;2.47;1.00;;;;;;;37.61;22.79;161099.58;1608785;87;21255;-86
2021/05/07 11:35:14;;;;;;;3.83;0.80;;;;;;;37.59;22.77;161094.20;1607994;87;21360;-86
2021/05/07 11:37:48;;;;;;;3.12;0.90;;;;;;;37.60;22.74;161098.20;1624726;86;21948;-85
2021/05/07 11:40:21;;;;;;;0.72;0.72;;;;;;;37.61;22.71;161100.89;1637645;86;21185;-85
2021/05/07 11:42:55;;;;;;;2.67;0.80;;;;;;;37.65;22.74;161110.25;1639390;86;21855;-85
2021/05/07 11:45:28;;;;;;;3.47;1.05;;;;;;;37.68;22.70;161118.30;1639677;87;21363;-85
2021/05/07 11:48:11;;;;;;;0.70;0.70;;;;;;;37.68;22.73;161119.63;1635788;86;21378;-85
2021/05/07 11:50:45;;;;;;;3.22;0.88;;;;;;;37.72;22.71;161130.36;1609709;87;21327;-85
2021/05/07 11:53:23;;;;;;;5.33;2.12;;;;;;;37.74;22.72;161134.34;1607695;87;21282;-85
2021/05/07 11:55:56;;;;;;;1.20;0.70;;;;;;;37.85;22.74;161163.92;1607472;89;21837;-85